Time;durP1;ratioP1;P1;durP2;ratioP2;P2;SDS_P1;SDS_P2;PMS_P1;PMS_P2;Temp;Humidity;BMP_temperature;BMP_pressure;BME280_temperature;BME280_humidity;BME280_pressure;Samples;Min_cycle;Max_cycle;Signal;HPM_P1;HPM_P2
2023/04/07 18:20:44;;;;;;;11.27;2.35;;;10.60;99.90;;;;;;4805460;23;20230;-92
2023/04/07 18:22:47;;;;;;;10.80;2.20;;;10.90;99.90;;;;;;4065434;29;20221;-90
2023/04/07 18:24:47;;;;;;;7.05;2.15;;;11.00;99.90;;;;;;4086256;29;20192;-93
2023/04/07 18:26:48;;;;;;;8.15;2.30;;;10.90;99.90;;;;;;4055879;29;20232;-93
2023/04/07 18:28:50;;;;;;;7.32;2.58;;;10.90;99.90;;;;;;4071224;29;20662;-93
2023/04/07 18:31:01;;;;;;;14.35;3.47;;;10.70;99.90;;;;;;4055550;29;20263;-92
2023/04/07 18:33:02;;;;;;;15.05;3.13;;;10.80;99.90;;;;;;4055562;29;20197;-93
2023/04/07 18:35:03;;;;;;;14.95;2.55;;;10.80;99.90;;;;;;4055599;29;20219;-92
2023/04/07 18:37:04;;;;;;;13.23;2.75;;;11.00;99.90;;;;;;4055481;29;20689;-93
2023/04/07 18:39:05;;;;;;;9.02;2.70;;;11.20;99.90;;;;;;4073936;29;20191;-93
2023/04/07 18:41:07;;;;;;;8.52;2.40;;;11.00;99.90;;;;;;4057150;29;20183;-93
2023/04/07 18:43:07;;;;;;;10.95;2.72;;;11.40;99.90;;;;;;4059373;29;20209;-93
2023/04/07 18:45:09;;;;;;;11.60;2.97;;;11.30;99.90;;;;;;4058724;29;20287;-93
2023/04/07 18:47:09;;;;;;;8.90;2.85;;;11.30;99.90;;;;;;4076584;29;20183;-95
2023/04/07 18:49:10;;;;;;;6.25;2.28;;;11.30;99.90;;;;;;4057651;29;20177;-92
2023/04/07 18:51:11;;;;;;;6.90;1.88;;;11.20;99.90;;;;;;4056826;29;20192;-92
2023/04/07 18:53:14;;;;;;;18.60;3.13;;;11.00;99.90;;;;;;4056272;29;20566;-93
2023/04/07 18:55:15;;;;;;;6.85;2.42;;;10.70;99.90;;;;;;4078429;29;20335;-92
2023/04/07 18:57:16;;;;;;;9.27;2.22;;;10.80;99.90;;;;;;4063989;29;20217;-94
2023/04/07 18:59:17;;;;;;;11.98;2.40;;;10.80;99.90;;;;;;4062553;29;20237;-92
2023/04/07 19:01:18;;;;;;;13.50;2.28;;;10.90;99.90;;;;;;4063746;29;20177;-91
2023/04/07 19:03:19;;;;;;;8.93;2.67;;;10.90;99.90;;;;;;4064231;29;20193;-93
2023/04/07 19:05:20;;;;;;;11.55;3.05;;;11.00;99.90;;;;;;4063752;29;20184;-92
2023/04/07 19:07:21;;;;;;;10.18;2.60;;;11.00;99.90;;;;;;4062927;29;20173;-92
2023/04/07 19:09:21;;;;;;;12.77;3.17;;;10.90;99.90;;;;;;4062368;29;20172;-91
2023/04/07 19:11:23;;;;;;;6.78;2.90;;;10.80;99.90;;;;;;4093718;29;20274;-92
2023/04/07 19:13:24;;;;;;;13.00;2.85;;;10.40;99.90;;;;;;4078904;29;20191;-93
2023/04/07 19:15:25;;;;;;;12.07;2.92;;;10.30;99.90;;;;;;4062052;29;20232;-92
2023/04/07 19:17:26;;;;;;;12.90;2.75;;;10.20;99.90;;;;;;4061359;29;20217;-92
2023/04/07 19:19:27;;;;;;;10.63;2.53;;;10.10;99.90;;;;;;4061846;29;20169;-93
2023/04/07 19:21:28;;;;;;;9.32;2.40;;;10.20;99.90;;;;;;4060719;29;20283;-91
2023/04/07 19:23:32;;;;;;;9.02;2.55;;;10.20;99.90;;;;;;4061637;29;20203;-92
2023/04/07 19:25:33;;;;;;;9.90;2.92;;;10.00;99.90;;;;;;4061151;29;20188;-93
2023/04/07 19:27:34;;;;;;;15.65;3.28;;;10.00;99.90;;;;;;4059041;29;20205;-92
2023/04/07 19:29:35;;;;;;;12.27;3.03;;;10.20;99.90;;;;;;4073922;29;20179;-92
2023/04/07 19:31:37;;;;;;;14.02;3.40;;;10.30;99.90;;;;;;4073238;29;20176;-92
2023/04/07 19:33:38;;;;;;;21.70;5.78;;;10.40;99.90;;;;;;4057898;29;20199;-92
2023/04/07 19:35:40;;;;;;;24.85;8.15;;;10.30;99.90;;;;;;4073067;29;20214;-94
2023/04/07 19:37:40;;;;;;;15.75;4.30;;;10.20;99.90;;;;;;4056247;29;20224;-91
2023/04/07 19:39:42;;;;;;;12.18;4.07;;;10.30;99.90;;;;;;4071477;29;20168;-92
2023/04/07 19:41:42;;;;;;;14.55;4.60;;;10.30;99.90;;;;;;4055923;29;20696;-91
2023/04/07 19:43:43;;;;;;;20.33;4.70;;;10.30;99.90;;;;;;4055216;29;20193;-91
2023/04/07 19:45:49;;;;;;;12.60;3.88;;;10.20;99.90;;;;;;4071430;29;20180;-91
2023/04/07 19:47:50;;;;;;;16.65;3.10;;;10.30;99.90;;;;;;4055971;29;20185;-91
2023/04/07 19:49:51;;;;;;;19.77;6.38;;;10.10;99.90;;;;;;4071938;29;20168;-92
2023/04/07 19:51:55;;;;;;;21.00;8.88;;;10.20;99.90;;;;;;4066440;29;20165;-91
2023/04/07 19:53:56;;;;;;;18.33;8.43;;;10.30;99.90;;;;;;4055619;29;20265;-91
2023/04/07 19:55:57;;;;;;;83.53;37.95;;;10.50;99.90;;;;;;4070800;29;20183;-93
2023/04/07 19:57:57;;;;;;;30.83;12.02;;;10.50;99.90;;;;;;4070664;29;20211;-92
2023/04/07 19:59:58;;;;;;;35.05;14.55;;;10.40;99.90;;;;;;4070686;29;20181;-91
2023/04/07 20:02:00;;;;;;;89.78;38.13;;;10.30;99.90;;;;;;4056627;29;20173;-92
2023/04/07 20:04:05;;;;;;;19.50;5.75;;;10.30;99.90;;;;;;4072517;29;20196;-92
2023/04/07 20:06:06;;;;;;;20.13;4.18;;;10.50;99.90;;;;;;4057830;29;20191;-92
2023/04/07 20:08:09;;;;;;;19.27;4.35;;;10.50;99.90;;;;;;4073347;29;20563;-92
2023/04/07 20:10:10;;;;;;;13.35;3.67;;;10.60;99.90;;;;;;4055286;29;20200;-93
2023/04/07 20:12:11;;;;;;;19.98;4.57;;;10.70;99.90;;;;;;4061426;29;20189;-93
2023/04/07 20:14:12;;;;;;;19.90;4.30;;;10.60;99.90;;;;;;4054853;29;20193;-92
2023/04/07 20:16:13;;;;;;;10.63;3.70;;;10.80;99.90;;;;;;4054833;29;20622;-91
2023/04/07 20:18:17;;;;;;;26.17;8.05;;;10.90;99.90;;;;;;4054701;29;20560;-91
2023/04/07 20:20:18;;;;;;;22.08;7.00;;;10.80;99.90;;;;;;4054947;29;20177;-91
2023/04/07 20:22:18;;;;;;;25.13;8.35;;;10.70;99.90;;;;;;4070232;29;20190;-91
2023/04/07 20:24:19;;;;;;;17.83;5.15;;;10.50;99.90;;;;;;4054775;29;20176;-92
2023/04/07 20:26:20;;;;;;;24.05;6.55;;;10.70;99.90;;;;;;4054644;29;20169;-91
2023/04/07 20:28:22;;;;;;;41.50;13.00;;;10.80;99.90;;;;;;4054621;29;20204;-90
2023/04/07 20:30:23;;;;;;;33.55;15.55;;;10.60;99.90;;;;;;4054088;29;20191;-91
2023/04/07 20:32:25;;;;;;;56.13;21.55;;;10.50;99.90;;;;;;4070203;29;20613;-91
2023/04/07 20:34:25;;;;;;;23.25;6.90;;;10.20;99.90;;;;;;4054397;29;20185;-91
2023/04/07 20:36:26;;;;;;;25.08;9.15;;;9.90;99.90;;;;;;4070163;29;20168;-92
2023/04/07 20:38:27;;;;;;;15.77;4.40;;;9.80;99.90;;;;;;4070197;29;20715;-91
2023/04/07 20:40:29;;;;;;;17.20;4.25;;;10.00;99.90;;;;;;4054614;29;20173;-90
2023/04/07 20:42:30;;;;;;;18.88;5.45;;;10.00;99.90;;;;;;4054007;29;20196;-90
2023/04/07 20:44:32;;;;;;;13.18;4.35;;;10.20;99.90;;;;;;4070012;29;20199;-92
2023/04/07 20:46:33;;;;;;;9.05;4.38;;;10.00;99.90;;;;;;4054572;29;20681;-91
2023/04/07 20:48:34;;;;;;;14.95;4.40;;;9.80;99.90;;;;;;4084609;23;20212;-96
2023/04/07 20:50:35;;;;;;;15.07;4.53;;;9.80;99.90;;;;;;4068709;29;20187;-95
2023/04/07 20:52:38;;;;;;;10.95;4.93;;;9.90;99.90;;;;;;4052941;29;20189;-95
2023/04/07 20:54:41;;;;;;;14.45;5.82;;;10.20;99.90;;;;;;4052938;29;20168;-95
2023/04/07 20:56:43;;;;;;;20.42;5.45;;;10.00;99.90;;;;;;4052812;29;20294;-94
2023/04/07 20:58:44;;;;;;;18.98;5.38;;;9.90;99.90;;;;;;4037495;29;20170;-94
2023/04/07 21:00:45;;;;;;;20.48;5.75;;;9.70;99.90;;;;;;4053021;29;20197;-96
2023/04/07 21:02:47;;;;;;;15.18;5.30;;;9.70;99.90;;;;;;4052974;29;20235;-95
2023/04/07 21:04:47;;;;;;;15.98;5.57;;;9.70;99.90;;;;;;4037706;29;20201;-93
2023/04/07 21:06:48;;;;;;;20.00;4.88;;;9.70;99.90;;;;;;4037386;29;20181;-95
2023/04/07 21:08:49;;;;;;;17.17;5.15;;;9.80;99.90;;;;;;4068464;29;20172;-95
2023/04/07 21:10:51;;;;;;;20.75;5.53;;;9.90;99.90;;;;;;4053172;29;20181;-94
2023/04/07 21:12:51;;;;;;;19.52;5.80;;;9.90;99.90;;;;;;4068268;29;20585;-94
2023/04/07 21:14:52;;;;;;;13.32;4.95;;;10.20;99.90;;;;;;4052992;29;20173;-94
2023/04/07 21:16:53;;;;;;;20.50;5.07;;;10.30;99.90;;;;;;4037492;29;20202;-93
2023/04/07 21:18:54;;;;;;;26.63;5.47;;;10.30;99.90;;;;;;4037392;29;20189;-94
2023/04/07 21:20:56;;;;;;;20.17;5.57;;;10.40;99.90;;;;;;4037680;29;20177;-95
2023/04/07 21:22:57;;;;;;;24.05;5.82;;;10.50;99.90;;;;;;4052762;29;20204;-94
2023/04/07 21:24:58;;;;;;;22.52;6.03;;;10.40;99.90;;;;;;4052691;29;20233;-94
2023/04/07 21:26:59;;;;;;;18.98;5.72;;;10.60;99.90;;;;;;4037481;29;20177;-94
2023/04/07 21:29:00;;;;;;;21.60;5.38;;;10.50;99.90;;;;;;4037361;29;20189;-93
2023/04/07 21:31:02;;;;;;;15.35;5.65;;;10.40;99.90;;;;;;4052842;29;20185;-94
2023/04/07 21:33:03;;;;;;;22.92;5.38;;;10.30;99.90;;;;;;4037331;29;20296;-94
2023/04/07 21:35:04;;;;;;;20.25;5.68;;;10.20;99.90;;;;;;4037279;29;20181;-93
2023/04/07 21:37:06;;;;;;;22.52;5.50;;;10.10;99.90;;;;;;4037121;29;20213;-94
2023/04/07 21:39:07;;;;;;;23.55;5.82;;;10.00;99.90;;;;;;4052522;29;20216;-95
2023/04/07 21:41:09;;;;;;;18.60;5.10;;;9.90;99.90;;;;;;4052438;29;20180;-93
2023/04/07 21:43:11;;;;;;;13.43;5.32;;;9.80;99.90;;;;;;4052556;29;20557;-94
2023/04/07 21:45:11;;;;;;;26.73;6.03;;;10.00;99.90;;;;;;4052555;29;20181;-95
2023/04/07 21:47:12;;;;;;;17.13;5.47;;;10.00;99.90;;;;;;4037012;29;20173;-94
2023/04/07 21:49:14;;;;;;;20.50;6.63;;;10.00;99.90;;;;;;4037276;29;20196;-95
2023/04/07 21:51:15;;;;;;;21.15;6.53;;;10.00;99.90;;;;;;4052571;29;20177;-95
2023/04/07 21:53:16;;;;;;;18.95;6.05;;;9.90;99.90;;;;;;4052607;29;20550;-93
2023/04/07 21:55:20;;;;;;;22.80;7.35;;;9.80;99.90;;;;;;4037162;29;20201;-94
2023/04/07 21:57:21;;;;;;;24.52;8.32;;;9.70;99.90;;;;;;4037192;29;20221;-94
2023/04/07 21:59:21;;;;;;;23.85;7.93;;;9.80;99.90;;;;;;4039637;29;20233;-94
2023/04/07 22:01:22;;;;;;;23.95;7.20;;;9.80;99.90;;;;;;4040028;29;20178;-96
2023/04/07 22:03:23;;;;;;;25.13;7.35;;;9.70;99.90;;;;;;4040062;29;20702;-96
2023/04/07 22:05:24;;;;;;;21.58;7.15;;;9.90;99.90;;;;;;4040477;29;20174;-95
2023/04/07 22:07:25;;;;;;;19.60;7.50;;;10.00;99.90;;;;;;4040139;29;20178;-94
2023/04/07 22:09:26;;;;;;;22.92;6.93;;;10.10;99.90;;;;;;4039895;29;20184;-94
2023/04/07 22:11:26;;;;;;;20.45;7.70;;;10.00;99.90;;;;;;4040105;29;20178;-95
2023/04/07 22:13:27;;;;;;;24.23;7.47;;;10.00;99.90;;;;;;4055155;29;20196;-94
2023/04/07 22:15:28;;;;;;;29.45;7.00;;;10.10;99.90;;;;;;4039420;29;20706;-95
2023/04/07 22:17:29;;;;;;;21.90;7.55;;;10.20;99.90;;;;;;4055081;29;20244;-95
2023/04/07 22:19:30;;;;;;;23.92;7.85;;;10.40;99.90;;;;;;4071253;29;20227;-95
2023/04/07 22:21:31;;;;;;;25.13;7.80;;;10.40;99.90;;;;;;4059671;29;20638;-94
2023/04/07 22:23:32;;;;;;;22.95;7.57;;;10.60;99.90;;;;;;4075452;29;20184;-93
2023/04/07 22:25:33;;;;;;;23.13;7.50;;;10.30;99.90;;;;;;4061587;29;20557;-93
2023/04/07 22:27:34;;;;;;;21.08;8.25;;;10.10;99.90;;;;;;4055348;29;20694;-96
2023/04/07 22:29:34;;;;;;;26.65;7.90;;;10.10;99.90;;;;;;4041826;29;20185;-93
2023/04/07 22:31:35;;;;;;;25.15;7.35;;;9.90;99.90;;;;;;4055436;29;20181;-95
2023/04/07 22:33:36;;;;;;;25.27;8.27;;;10.00;99.90;;;;;;4070858;29;20204;-94
2023/04/07 22:35:37;;;;;;;19.45;7.18;;;9.90;99.90;;;;;;4040182;29;20265;-95
2023/04/07 22:37:38;;;;;;;26.70;7.25;;;9.70;99.90;;;;;;4055286;29;20257;-94
2023/04/07 22:39:38;;;;;;;24.40;8.30;;;9.80;99.90;;;;;;4039814;29;20192;-93
2023/04/07 22:41:39;;;;;;;24.10;7.93;;;10.00;99.90;;;;;;4055202;29;20233;-94
2023/04/07 22:43:40;;;;;;;20.70;7.55;;;10.00;99.90;;;;;;4055107;29;20579;-94
2023/04/07 22:45:41;;;;;;;31.65;8.68;;;9.90;99.90;;;;;;4055159;29;20189;-96
2023/04/07 22:47:42;;;;;;;28.25;7.40;;;10.00;99.90;;;;;;4039577;29;20220;-93
2023/04/07 22:49:43;;;;;;;26.15;8.10;;;10.10;99.90;;;;;;4054865;29;20345;-94
2023/04/07 22:51:47;;;;;;;26.20;8.00;;;9.70;99.90;;;;;;4054767;29;20185;-94
2023/04/07 22:53:48;;;;;;;27.95;8.13;;;9.70;99.90;;;;;;4039346;29;20252;-94
2023/04/07 22:55:49;;;;;;;26.92;7.82;;;9.90;99.90;;;;;;4054524;29;20181;-94
2023/04/07 22:57:50;;;;;;;24.25;8.25;;;9.70;99.90;;;;;;4038701;29;20221;-94
2023/04/07 22:59:51;;;;;;;22.95;8.55;;;9.60;99.90;;;;;;4054718;29;20336;-92
2023/04/07 23:01:51;;;;;;;19.95;7.13;;;9.60;99.90;;;;;;4039257;29;20181;-93
2023/04/07 23:03:52;;;;;;;25.15;8.05;;;9.70;99.90;;;;;;4038991;29;20709;-96
2023/04/07 23:05:53;;;;;;;28.23;7.65;;;9.70;99.90;;;;;;4070330;29;20183;-93
2023/04/07 23:07:54;;;;;;;26.40;8.35;;;9.80;99.90;;;;;;4054721;29;20181;-95
2023/04/07 23:09:55;;;;;;;27.40;8.13;;;9.90;99.90;;;;;;4038291;29;20210;-94
2023/04/07 23:11:56;;;;;;;26.98;8.10;;;9.80;99.90;;;;;;4039094;29;20256;-95
2023/04/07 23:13:56;;;;;;;17.42;7.68;;;9.90;99.90;;;;;;4054635;29;20221;-95
2023/04/07 23:15:58;;;;;;;25.13;8.68;;;9.60;99.90;;;;;;4054887;29;20172;-94
2023/04/07 23:17:59;;;;;;;25.58;7.45;;;9.50;99.90;;;;;;4039057;29;20278;-94
2023/04/07 23:19:59;;;;;;;32.08;8.35;;;9.70;99.90;;;;;;4038816;29;20170;-93
2023/04/07 23:22:00;;;;;;;22.27;7.22;;;9.90;99.90;;;;;;4054414;29;20269;-94
2023/04/07 23:24:01;;;;;;;22.67;7.40;;;9.90;99.90;;;;;;4054205;29;20197;-94
2023/04/07 23:26:01;;;;;;;20.73;7.07;;;9.90;99.90;;;;;;4054266;29;20180;-94
2023/04/07 23:28:02;;;;;;;26.92;7.55;;;9.80;99.90;;;;;;4038683;29;20185;-94
2023/04/07 23:30:04;;;;;;;19.50;7.07;;;9.70;99.90;;;;;;4038891;29;20272;-94
2023/04/07 23:32:05;;;;;;;27.92;7.45;;;9.50;99.90;;;;;;4054310;29;20169;-94
2023/04/07 23:34:06;;;;;;;23.88;7.03;;;9.40;99.90;;;;;;4038976;29;20205;-94
2023/04/07 23:36:07;;;;;;;34.20;7.50;;;9.70;99.90;;;;;;4039200;29;20192;-95
2023/04/07 23:38:08;;;;;;;28.15;8.05;;;10.00;99.90;;;;;;4039326;29;20299;-94
2023/04/07 23:40:09;;;;;;;26.05;6.90;;;9.90;99.90;;;;;;4038585;29;20185;-94
2023/04/07 23:42:10;;;;;;;32.50;7.72;;;9.70;99.90;;;;;;4054213;29;20260;-94
2023/04/07 23:44:10;;;;;;;25.83;7.65;;;9.50;99.90;;;;;;4054148;29;20208;-95
2023/04/07 23:46:11;;;;;;;24.85;7.55;;;9.30;99.90;;;;;;4053949;29;20553;-94
2023/04/07 23:48:12;;;;;;;17.55;7.38;;;9.30;99.90;;;;;;4038602;29;20189;-94
2023/04/07 23:50:13;;;;;;;26.60;7.43;;;9.60;99.90;;;;;;4038560;29;20268;-94
2023/04/07 23:52:15;;;;;;;18.88;7.20;;;9.40;99.90;;;;;;4038301;29;20185;-94
2023/04/07 23:54:15;;;;;;;25.75;7.68;;;9.50;99.90;;;;;;4038414;29;20184;-94
2023/04/07 23:56:16;;;;;;;18.92;7.55;;;9.50;99.90;;;;;;4038312;29;20646;-94
2023/04/07 23:58:17;;;;;;;27.58;7.63;;;9.50;99.90;;;;;;4069194;29;20216;-93
